Time;durP1;ratioP1;P1;durP2;ratioP2;P2;SDS_P1;SDS_P2;PMS_P1;PMS_P2;Temp;Humidity;BMP_temperature;BMP_pressure;BME280_temperature;BME280_humidity;BME280_pressure;Samples;Min_cycle;Max_cycle;Signal;HPM_P1;HPM_P2
2022/12/02 00:01:10;;;;;;;53.92;22.27;;;3.70;93.00;;;;;;4988492;28;20035;-76
2022/12/02 00:03:36;;;;;;;54.63;19.88;;;3.80;91.90;;;;;;4974528;28;20049;-76
2022/12/02 00:06:02;;;;;;;53.90;19.17;;;3.80;92.50;;;;;;4974322;28;20097;-76
2022/12/02 00:08:29;;;;;;;55.88;18.73;;;3.70;91.80;;;;;;4974150;28;20090;-76
2022/12/02 00:10:57;;;;;;;54.50;19.40;;;;;;;;;;4993188;28;20021;-76
2022/12/02 00:13:25;;;;;;;46.28;17.75;;;;;;;;;;4993550;28;20085;-76
2022/12/02 00:15:52;;;;;;;53.00;19.25;;;;;;;;;;4996840;28;20057;-76
2022/12/02 00:18:19;;;;;;;57.35;20.48;;;3.80;91.10;;;;;;4997103;28;20036;-76
2022/12/02 00:20:45;;;;;;;50.13;19.33;;;3.70;88.80;;;;;;4997439;28;20018;-76
2022/12/02 00:23:11;;;;;;;42.97;16.75;;;3.70;88.50;;;;;;4997273;28;20034;-76
2022/12/02 00:25:37;;;;;;;51.25;18.85;;;3.70;86.30;;;;;;4997073;28;20022;-76
2022/12/02 00:28:02;;;;;;;49.50;19.42;;;3.70;84.80;;;;;;4996716;28;20068;-76
2022/12/02 00:30:28;;;;;;;52.95;19.85;;;3.70;84.00;;;;;;4997106;28;20029;-76
2022/12/02 00:32:54;;;;;;;36.15;16.45;;;;;;;;;;4997009;28;20392;-76
2022/12/02 00:35:22;;;;;;;48.53;17.73;;;;;;;;;;4996883;28;20030;-76
2022/12/02 00:37:47;;;;;;;44.00;18.13;;;3.70;83.60;;;;;;4996745;28;20058;-76
2022/12/02 00:40:13;;;;;;;46.45;17.27;;;3.80;70.30;;;;;;5003980;28;20100;-76
2022/12/02 00:42:39;;;;;;;51.95;18.58;;;3.70;75.10;;;;;;5016234;28;20025;-76
2022/12/02 00:47:49;;;;;;;38.15;15.95;;;3.70;77.50;;;;;;5016321;28;20093;-75
2022/12/02 00:50:14;;;;;;;44.83;16.48;;;3.70;70.00;;;;;;5006756;28;20058;-76
2022/12/02 00:52:40;;;;;;;54.88;20.50;;;3.60;67.70;;;;;;4996490;28;20077;-76
2022/12/02 00:55:06;;;;;;;48.40;16.95;;;3.60;68.10;;;;;;4996742;28;20370;-76
2022/12/02 00:57:32;;;;;;;46.80;16.30;;;3.60;67.00;;;;;;4996278;28;20050;-76
2022/12/02 00:59:57;;;;;;;40.83;16.58;;;3.50;69.20;;;;;;4996427;28;20455;-76
2022/12/02 01:02:23;;;;;;;44.13;17.48;;;3.50;69.80;;;;;;4996212;28;20079;-75
2022/12/02 01:04:48;;;;;;;46.60;17.45;;;3.50;64.30;;;;;;4996380;28;20030;-76
2022/12/02 01:07:14;;;;;;;42.30;15.80;;;3.50;69.70;;;;;;4996245;28;20109;-76
2022/12/02 01:09:40;;;;;;;52.28;17.98;;;3.40;69.60;;;;;;4996274;28;20022;-76
2022/12/02 01:12:06;;;;;;;41.47;16.23;;;3.40;70.10;;;;;;4996132;28;20057;-76
2022/12/02 01:14:32;;;;;;;34.22;12.52;;;;;;;;;;5004893;28;20018;-76
2022/12/02 01:16:58;;;;;;;46.75;16.38;;;;;;;;;;5015669;28;20110;-76
2022/12/02 01:19:24;;;;;;;38.67;14.25;;;;;;;;;;5015570;28;20033;-76
2022/12/02 01:21:50;;;;;;;42.72;15.95;;;;;;;;;;5015571;28;20022;-76
2022/12/02 01:24:16;;;;;;;43.03;13.60;;;;;;;;;;5015305;28;20041;-75
2022/12/02 01:26:42;;;;;;;43.92;15.63;;;;;;;;;;5014573;28;20041;-76
2022/12/02 01:29:08;;;;;;;40.67;15.82;;;;;;;;;;5015258;28;20026;-76
2022/12/02 01:31:34;;;;;;;37.88;14.00;;;;;;;;;;5015526;28;20515;-76
2022/12/02 01:34:00;;;;;;;43.28;16.58;;;;;;;;;;5015376;28;20059;-76
2022/12/02 01:36:25;;;;;;;47.28;16.60;;;3.40;66.20;;;;;;5015143;28;20456;-76
2022/12/02 01:38:51;;;;;;;31.98;11.75;;;3.30;70.40;;;;;;5015179;28;20022;-76
2022/12/02 01:41:17;;;;;;;39.50;14.60;;;3.20;69.30;;;;;;5015253;28;20436;-76
2022/12/02 01:43:42;;;;;;;38.13;14.70;;;3.20;67.60;;;;;;5015088;28;20022;-75
2022/12/02 01:46:08;;;;;;;37.03;15.25;;;3.30;69.30;;;;;;5014948;28;20034;-76
2022/12/02 01:48:35;;;;;;;49.05;17.77;;;3.20;70.00;;;;;;5015052;28;20453;-76
2022/12/02 01:51:01;;;;;;;49.72;16.67;;;3.20;71.90;;;;;;4999413;28;20401;-76
2022/12/02 01:53:27;;;;;;;44.17;15.82;;;3.20;72.70;;;;;;4995388;28;20033;-76
2022/12/02 01:55:53;;;;;;;42.13;15.57;;;3.20;71.70;;;;;;4995394;28;20033;-76
2022/12/02 01:58:23;;;;;;;43.88;16.63;;;3.20;72.80;;;;;;4995207;28;20053;-76
2022/12/02 02:00:49;;;;;;;48.03;16.70;;;3.20;68.90;;;;;;4995330;28;20026;-76
2022/12/02 02:03:14;;;;;;;40.58;14.32;;;3.20;72.50;;;;;;4995139;28;20634;-76
2022/12/02 02:05:40;;;;;;;45.53;16.45;;;3.10;72.20;;;;;;4995248;28;20176;-76
2022/12/02 02:08:09;;;;;;;47.33;16.73;;;3.10;73.50;;;;;;4995246;28;20026;-76
2022/12/02 02:10:37;;;;;;;41.85;16.88;;;3.10;71.50;;;;;;4994968;28;20374;-76
2022/12/02 02:13:03;;;;;;;39.28;15.02;;;3.10;70.80;;;;;;4994862;28;20054;-76
2022/12/02 02:15:30;;;;;;;45.22;17.20;;;3.10;71.00;;;;;;4994958;28;20027;-75
2022/12/02 02:17:57;;;;;;;41.20;16.05;;;3.10;65.30;;;;;;4994973;28;20021;-76
2022/12/02 02:20:24;;;;;;;43.78;16.50;;;3.00;64.40;;;;;;4994899;28;20026;-76
2022/12/02 02:23:05;;;;;;;38.83;14.65;;;3.10;64.00;;;;;;4994722;28;20030;-75
2022/12/02 02:25:42;;;;;;;37.35;14.25;;;3.10;63.40;;;;;;4994564;28;20030;-75
2022/12/02 02:28:08;;;;;;;46.08;16.90;;;3.10;66.20;;;;;;4994835;28;20026;-76
2022/12/02 02:30:35;;;;;;;41.78;15.95;;;3.00;65.80;;;;;;4994643;28;20018;-76
2022/12/02 02:33:03;;;;;;;48.97;17.02;;;3.00;65.80;;;;;;4994736;28;20023;-76
2022/12/02 02:35:30;;;;;;;41.63;15.10;;;3.00;66.40;;;;;;4994559;28;20032;-76
2022/12/02 02:37:56;;;;;;;42.45;16.05;;;3.00;69.70;;;;;;4994513;28;20097;-76
2022/12/02 02:40:23;;;;;;;48.75;17.42;;;3.00;70.90;;;;;;4994478;28;20431;-76
2022/12/02 02:42:51;;;;;;;52.80;17.98;;;3.00;72.90;;;;;;4994521;28;20030;-76
2022/12/02 02:45:23;;;;;;;44.20;17.98;;;3.00;73.70;;;;;;4994406;28;20025;-76
2022/12/02 02:47:49;;;;;;;49.58;18.73;;;2.90;75.70;;;;;;4994598;28;20030;-76
2022/12/02 02:50:16;;;;;;;47.83;17.10;;;2.90;76.10;;;;;;4985059;28;20486;-76
2022/12/02 02:52:41;;;;;;;43.90;16.65;;;2.90;76.00;;;;;;4994178;28;20027;-76
2022/12/02 02:55:13;;;;;;;49.17;18.48;;;2.90;75.10;;;;;;4994330;28;20022;-76
2022/12/02 02:57:39;;;;;;;44.42;16.10;;;2.90;76.30;;;;;;4994392;28;20037;-76
2022/12/02 03:00:05;;;;;;;44.63;17.25;;;2.90;77.40;;;;;;4994280;28;20381;-76
2022/12/02 03:02:31;;;;;;;44.42;16.20;;;2.90;77.10;;;;;;4994162;28;20081;-75
2022/12/02 03:04:57;;;;;;;49.38;17.50;;;2.90;73.10;;;;;;4994222;28;20161;-76
2022/12/02 03:07:23;;;;;;;48.22;18.80;;;2.90;73.20;;;;;;4994209;28;20101;-76
2022/12/02 03:09:49;;;;;;;45.50;17.58;;;2.80;73.40;;;;;;4994025;28;20074;-76
2022/12/02 03:12:16;;;;;;;46.55;16.77;;;2.80;77.20;;;;;;4994162;28;20473;-75
2022/12/02 03:14:43;;;;;;;43.58;17.23;;;2.80;71.70;;;;;;4994024;28;20381;-76
2022/12/02 03:17:09;;;;;;;48.55;16.75;;;2.80;76.70;;;;;;4994484;28;20018;-76
2022/12/02 03:19:36;;;;;;;47.63;17.50;;;2.80;70.40;;;;;;4994075;28;20023;-76
2022/12/02 03:22:02;;;;;;;46.67;17.63;;;2.80;70.70;;;;;;4994050;28;20018;-76
2022/12/02 03:24:30;;;;;;;47.45;18.70;;;2.80;70.10;;;;;;4994081;28;20026;-76
2022/12/02 03:26:56;;;;;;;51.70;18.05;;;2.70;71.30;;;;;;4994071;28;20057;-75
2022/12/02 03:29:22;;;;;;;37.15;15.07;;;2.70;70.20;;;;;;4993940;28;20062;-76
2022/12/02 03:31:48;;;;;;;50.22;18.10;;;2.80;70.10;;;;;;4993928;28;20026;-76
2022/12/02 03:34:14;;;;;;;47.55;16.73;;;2.80;77.40;;;;;;4993976;28;20033;-75
2022/12/02 03:36:40;;;;;;;44.28;15.55;;;2.80;76.80;;;;;;4993751;28;20535;-76
2022/12/02 03:39:06;;;;;;;36.95;13.50;;;2.80;79.00;;;;;;4993927;28;20026;-76
2022/12/02 03:41:32;;;;;;;47.55;16.25;;;2.80;75.40;;;;;;4993733;28;20025;-76
2022/12/02 03:43:58;;;;;;;41.22;16.67;;;2.70;81.00;;;;;;4993846;28;20030;-76
2022/12/02 03:46:25;;;;;;;38.75;14.90;;;2.70;80.80;;;;;;4993787;28;20057;-75
2022/12/02 03:48:51;;;;;;;45.00;16.67;;;2.70;76.30;;;;;;4994056;28;20050;-75
2022/12/02 03:51:17;;;;;;;47.85;15.98;;;2.70;77.40;;;;;;4997509;28;20053;-76
2022/12/02 03:53:43;;;;;;;41.78;15.07;;;;;;;;;;4997588;28;20361;-75
2022/12/02 03:56:09;;;;;;;47.10;17.83;;;2.70;80.00;;;;;;4997886;28;20046;-76
2022/12/02 03:58:38;;;;;;;44.20;16.13;;;2.70;76.70;;;;;;4997475;28;20054;-76
2022/12/02 04:01:04;;;;;;;42.05;15.40;;;2.70;69.70;;;;;;4997331;28;20065;-76
2022/12/02 04:03:31;;;;;;;43.88;15.23;;;2.70;73.10;;;;;;4997421;28;20399;-75
2022/12/02 04:05:56;;;;;;;42.55;16.77;;;2.70;75.30;;;;;;4997470;28;20034;-76
2022/12/02 04:08:22;;;;;;;36.35;14.13;;;2.70;72.20;;;;;;4997452;28;20355;-76
2022/12/02 04:10:47;;;;;;;43.92;16.58;;;2.70;70.30;;;;;;4997340;28;20026;-76
2022/12/02 04:13:13;;;;;;;36.05;12.70;;;2.70;72.80;;;;;;4997341;28;20377;-75
2022/12/02 04:15:38;;;;;;;42.45;15.23;;;2.70;70.80;;;;;;4997201;28;20105;-76
2022/12/02 04:18:04;;;;;;;43.35;15.80;;;2.70;69.50;;;;;;4997252;28;20030;-76
2022/12/02 04:20:30;;;;;;;39.88;15.70;;;2.70;71.70;;;;;;4996987;28;20018;-76
2022/12/02 04:22:55;;;;;;;36.85;15.05;;;2.70;73.30;;;;;;4997182;28;20034;-76
2022/12/02 04:25:21;;;;;;;38.65;13.55;;;2.70;73.70;;;;;;4997057;28;20022;-76
2022/12/02 04:27:46;;;;;;;39.30;15.05;;;2.70;70.60;;;;;;4996729;28;20473;-76
2022/12/02 04:30:12;;;;;;;41.20;14.55;;;2.70;66.20;;;;;;4997018;28;20022;-76
2022/12/02 04:32:38;;;;;;;36.47;13.23;;;2.70;66.10;;;;;;4996791;28;20053;-76
2022/12/02 04:35:04;;;;;;;38.85;16.48;;;2.60;64.80;;;;;;4996924;28;20026;-76
2022/12/02 04:37:29;;;;;;;41.53;16.02;;;2.70;67.60;;;;;;4996754;28;20027;-75
2022/12/02 04:39:55;;;;;;;46.33;15.80;;;2.70;66.80;;;;;;4996817;28;20347;-75
2022/12/02 04:42:20;;;;;;;41.20;15.45;;;2.70;66.00;;;;;;4996675;28;20026;-75
2022/12/02 04:44:46;;;;;;;43.25;15.20;;;2.70;67.10;;;;;;4996801;28;20108;-76
2022/12/02 04:47:11;;;;;;;34.03;13.00;;;2.70;66.50;;;;;;4994137;28;20022;-76
2022/12/02 04:49:37;;;;;;;39.22;13.85;;;2.70;67.00;;;;;;4976845;28;20386;-76
2022/12/02 04:52:03;;;;;;;41.45;14.55;;;2.70;65.60;;;;;;4977135;28;20067;-75
2022/12/02 04:54:29;;;;;;;42.35;14.25;;;2.70;64.50;;;;;;4977403;28;20027;-75
2022/12/02 04:56:54;;;;;;;48.28;17.23;;;2.70;64.10;;;;;;4977240;28;20023;-76
2022/12/02 04:59:20;;;;;;;33.58;12.57;;;2.60;64.20;;;;;;4976921;28;20547;-75
2022/12/02 05:01:45;;;;;;;39.58;15.00;;;2.70;62.70;;;;;;4975554;28;20022;-75
2022/12/02 05:04:11;;;;;;;46.67;17.17;;;2.70;60.30;;;;;;4976854;28;20034;-75
2022/12/02 05:06:36;;;;;;;36.10;13.43;;;2.70;63.30;;;;;;4976769;28;20039;-76
2022/12/02 05:09:02;;;;;;;45.70;16.35;;;2.60;63.30;;;;;;4976913;28;20125;-76
2022/12/02 05:11:28;;;;;;;41.83;16.00;;;2.70;62.90;;;;;;4976661;28;20029;-75
2022/12/02 05:13:53;;;;;;;44.67;16.02;;;2.60;62.60;;;;;;4976744;28;20085;-76
2022/12/02 05:16:19;;;;;;;42.67;14.82;;;2.60;69.10;;;;;;4976777;28;20462;-76
2022/12/02 05:18:45;;;;;;;42.70;16.10;;;2.70;61.50;;;;;;4976541;28;20046;-75
2022/12/02 05:21:10;;;;;;;41.45;14.75;;;2.70;58.40;;;;;;4976650;28;20401;-75
2022/12/02 05:23:36;;;;;;;43.80;15.63;;;2.60;60.10;;;;;;4976370;28;20023;-75
2022/12/02 05:26:01;;;;;;;45.75;15.77;;;2.60;62.20;;;;;;4976555;28;20035;-76
2022/12/02 05:28:27;;;;;;;43.85;16.60;;;2.60;58.00;;;;;;4983222;28;20042;-75
2022/12/02 05:30:52;;;;;;;41.03;14.50;;;2.60;62.70;;;;;;4995993;28;20022;-76
2022/12/02 05:33:18;;;;;;;44.47;16.42;;;2.60;59.40;;;;;;4995809;28;20109;-75
2022/12/02 05:35:44;;;;;;;44.28;15.55;;;2.60;60.10;;;;;;4995784;28;20485;-75
2022/12/02 05:38:09;;;;;;;41.85;15.90;;;2.60;57.10;;;;;;4995668;28;20031;-75
2022/12/02 05:40:35;;;;;;;40.33;14.25;;;2.60;62.40;;;;;;4995546;28;20068;-76
2022/12/02 05:43:20;;;;;;;38.28;14.38;;;2.60;59.80;;;;;;4995476;28;20034;-76
2022/12/02 05:45:46;;;;;;;47.10;15.15;;;2.60;60.00;;;;;;4995457;28;20073;-76
2022/12/02 05:48:15;;;;;;;33.15;13.52;;;2.60;60.90;;;;;;4995403;28;20023;-75
2022/12/02 05:50:42;;;;;;;40.88;16.05;;;2.60;61.30;;;;;;4995239;28;20043;-76
2022/12/02 05:53:27;;;;;;;48.20;18.48;;;2.60;61.90;;;;;;4995225;28;20038;-76
2022/12/02 05:55:54;;;;;;;47.90;17.00;;;2.60;62.20;;;;;;4995610;28;20070;-75
2022/12/02 05:58:20;;;;;;;43.15;16.63;;;2.60;60.90;;;;;;4995196;28;20373;-76
2022/12/02 06:00:55;;;;;;;39.67;14.43;;;2.50;62.40;;;;;;4995295;28;20027;-76
2022/12/02 06:03:21;;;;;;;41.95;15.48;;;2.50;63.70;;;;;;4995241;28;20026;-76
2022/12/02 06:05:48;;;;;;;41.42;15.48;;;2.50;64.40;;;;;;4994896;28;20049;-75
2022/12/02 06:08:18;;;;;;;39.88;14.63;;;2.40;68.10;;;;;;4995113;28;20026;-75
2022/12/02 06:10:58;;;;;;;36.63;14.77;;;2.40;68.30;;;;;;4995125;28;20077;-75
2022/12/02 06:13:40;;;;;;;43.38;14.27;;;2.40;69.70;;;;;;4994565;28;20037;-75
2022/12/02 06:16:11;;;;;;;40.63;15.57;;;;;;;;;;4977735;28;20442;-75
2022/12/02 06:18:38;;;;;;;40.95;14.52;;;2.20;66.60;;;;;;4993717;28;20028;-76
2022/12/02 06:21:10;;;;;;;43.65;14.63;;;;;;;;;;4994350;28;20021;-75
2022/12/02 06:23:44;;;;;;;33.60;13.00;;;2.10;76.70;;;;;;4982435;28;20117;-75
2022/12/02 06:26:14;;;;;;;42.92;15.73;;;2.00;80.20;;;;;;4994497;28;20034;-75
2022/12/02 06:28:41;;;;;;;48.97;15.93;;;1.90;81.60;;;;;;4994444;28;20113;-76
2022/12/02 06:31:19;;;;;;;48.13;16.65;;;1.80;83.70;;;;;;4994492;28;20018;-75
2022/12/02 06:33:47;;;;;;;42.50;15.80;;;1.80;86.00;;;;;;4994155;28;20037;-75
2022/12/02 06:36:15;;;;;;;42.33;15.23;;;;;;;;;;4987442;28;20033;-75
2022/12/02 06:39:22;;;;;;;43.17;16.27;;;1.80;86.30;;;;;;4974196;28;20023;-75
2022/12/02 06:41:49;;;;;;;45.08;15.32;;;1.70;87.30;;;;;;4974925;28;20043;-75
2022/12/02 06:47:36;;;;;;;55.33;18.83;;;1.70;87.00;;;;;;4975608;28;20033;-75
2022/12/02 06:50:04;;;;;;;43.95;15.15;;;1.70;90.50;;;;;;4974778;28;20046;-76
2022/12/02 06:52:34;;;;;;;55.80;16.52;;;1.80;92.70;;;;;;4975602;28;20074;-75
2022/12/02 06:55:00;;;;;;;57.67;17.67;;;1.80;91.40;;;;;;4994268;28;20042;-75
2022/12/02 06:57:30;;;;;;;47.05;16.80;;;;;;;;;;4994467;28;20026;-75
2022/12/02 06:59:56;;;;;;;54.00;16.38;;;;;;;;;;4994501;28;20461;-75
2022/12/02 07:02:25;;;;;;;49.05;16.30;;;;;;;;;;4994284;28;20045;-75
2022/12/02 07:04:51;;;;;;;52.25;16.67;;;1.90;91.20;;;;;;4994162;28;20066;-76
2022/12/02 07:07:18;;;;;;;54.80;17.67;;;2.00;91.60;;;;;;4994307;28;20137;-75
2022/12/02 07:09:53;;;;;;;41.67;15.23;;;2.00;91.50;;;;;;4994147;28;20018;-76
2022/12/02 07:12:20;;;;;;;56.05;16.65;;;;;;;;;;4994224;28;20029;-75
2022/12/02 07:14:52;;;;;;;57.53;17.63;;;1.90;94.80;;;;;;4993936;28;20077;-75
2022/12/02 07:17:33;;;;;;;47.17;16.20;;;1.90;96.40;;;;;;4994360;28;20476;-75
2022/12/02 07:20:19;;;;;;;53.15;17.08;;;1.80;97.10;;;;;;4994132;28;20030;-76
2022/12/02 07:22:54;;;;;;;54.05;16.65;;;1.80;96.30;;;;;;4994047;28;20030;-75
2022/12/02 07:25:36;;;;;;;52.38;19.65;;;1.70;96.60;;;;;;4996669;28;20401;-75
2022/12/02 07:28:19;;;;;;;52.83;18.42;;;1.70;96.60;;;;;;4980513;28;20019;-76
2022/12/02 07:30:59;;;;;;;56.45;20.45;;;1.70;97.10;;;;;;4978455;28;20382;-76
2022/12/02 07:33:25;;;;;;;50.45;16.98;;;;;;;;;;4978464;28;20015;-76
2022/12/02 07:35:51;;;;;;;60.65;17.20;;;1.60;97.80;;;;;;4997094;28;20037;-75
2022/12/02 07:38:17;;;;;;;56.25;16.83;;;1.70;98.60;;;;;;5017331;28;20076;-75
2022/12/02 07:40:45;;;;;;;50.85;17.88;;;;;;;;;;5017200;28;20018;-75
2022/12/02 07:43:12;;;;;;;58.72;18.02;;;;;;;;;;5017706;28;20087;-76
2022/12/02 07:45:38;;;;;;;54.92;16.67;;;;;;;;;;5017152;28;20095;-76
2022/12/02 07:48:04;;;;;;;54.78;17.15;;;;;;;;;;5009917;28;20365;-75
2022/12/02 07:50:30;;;;;;;56.22;16.88;;;;;;;;;;4996880;28;20054;-75
2022/12/02 07:52:56;;;;;;;56.47;17.25;;;;;;;;;;4997402;28;20517;-76
2022/12/02 07:55:22;;;;;;;51.33;15.90;;;;;;;;;;4997119;28;20393;-76
2022/12/02 07:57:48;;;;;;;52.15;16.60;;;;;;;;;;4997051;28;20030;-76
2022/12/02 08:00:14;;;;;;;50.17;16.13;;;;;;;;;;4997166;28;20026;-75
2022/12/02 08:02:40;;;;;;;47.85;15.43;;;;;;;;;;4996895;28;20034;-75
2022/12/02 08:05:07;;;;;;;47.55;15.85;;;;;;;;;;4996951;28;20026;-76
2022/12/02 08:07:33;;;;;;;46.55;16.67;;;;;;;;;;4996738;28;20014;-75
2022/12/02 08:09:58;;;;;;;50.88;16.25;;;;;;;;;;4996641;28;20395;-75
2022/12/02 08:12:24;;;;;;;44.40;14.25;;;;;;;;;;4997028;28;20033;-76
2022/12/02 08:14:50;;;;;;;52.58;16.42;;;;;;;;;;4986900;28;20066;-75
2022/12/02 08:17:16;;;;;;;38.17;12.48;;;;;;;;;;4977299;28;20466;-75
2022/12/02 08:19:42;;;;;;;41.33;13.50;;;;;;;;;;4976663;28;20027;-75
2022/12/02 08:22:08;;;;;;;47.45;14.93;;;;;;;;;;4977280;28;20516;-75
2022/12/02 08:24:34;;;;;;;42.60;14.43;;;;;;;;;;4977233;28;20027;-75
2022/12/02 08:27:00;;;;;;;38.17;12.85;;;;;;;;;;4980485;28;20030;-75
2022/12/02 08:29:27;;;;;;;48.38;15.82;;;;;;;;;;4996513;28;20031;-75
2022/12/02 08:31:53;;;;;;;51.13;17.70;;;1.70;99.30;;;;;;4996743;28;20031;-75
2022/12/02 08:34:18;;;;;;;39.75;14.05;;;1.60;95.40;;;;;;4996399;28;20022;-75
2022/12/02 08:36:44;;;;;;;41.40;13.88;;;1.60;98.70;;;;;;4996001;28;20101;-75
2022/12/02 08:39:09;;;;;;;43.58;13.95;;;1.60;98.80;;;;;;4996560;28;20362;-75
2022/12/02 08:41:36;;;;;;;39.00;13.00;;;1.60;96.30;;;;;;4996195;28;20026;-75
2022/12/02 08:44:03;;;;;;;36.67;12.65;;;1.70;96.30;;;;;;4996160;28;20105;-75
2022/12/02 08:46:29;;;;;;;41.83;14.40;;;1.80;95.90;;;;;;4995969;28;20036;-75
2022/12/02 08:48:55;;;;;;;40.65;14.18;;;1.80;96.20;;;;;;4996209;28;20097;-75
2022/12/02 08:51:21;;;;;;;40.40;14.13;;;1.80;98.00;;;;;;4995347;28;20425;-75
2022/12/02 08:53:46;;;;;;;39.42;14.25;;;1.70;99.00;;;;;;4995837;28;20037;-75
2022/12/02 08:56:12;;;;;;;42.20;14.57;;;1.70;99.60;;;;;;4996218;28;20030;-75
2022/12/02 08:58:38;;;;;;;38.55;13.48;;;1.90;99.90;;;;;;4996422;28;20027;-75
2022/12/02 09:01:04;;;;;;;42.15;13.55;;;2.00;98.80;;;;;;4996436;28;20109;-76
2022/12/02 09:03:29;;;;;;;37.30;12.75;;;2.10;97.00;;;;;;4996615;28;20029;-75
2022/12/02 09:05:55;;;;;;;42.42;14.60;;;2.10;97.00;;;;;;4996007;28;20173;-76
2022/12/02 09:08:21;;;;;;;37.58;12.88;;;2.10;97.20;;;;;;4996352;28;20030;-75
2022/12/02 09:10:47;;;;;;;31.98;11.73;;;2.20;96.20;;;;;;4996206;28;20038;-76
2022/12/02 09:13:12;;;;;;;43.08;14.30;;;2.20;96.10;;;;;;4996174;28;20022;-75
2022/12/02 09:15:38;;;;;;;23.92;9.00;;;2.40;94.90;;;;;;4995864;28;20030;-75
2022/12/02 09:18:04;;;;;;;23.38;9.35;;;2.60;92.90;;;;;;4996204;28;20022;-75
2022/12/02 09:20:29;;;;;;;29.85;10.20;;;2.90;88.20;;;;;;5005866;28;20053;-75
2022/12/02 09:22:55;;;;;;;30.85;9.48;;;3.10;86.90;;;;;;5015307;28;20113;-76
2022/12/02 09:25:21;;;;;;;26.38;10.68;;;3.50;77.60;;;;;;5014436;28;20018;-75
2022/12/02 09:27:46;;;;;;;30.17;10.98;;;3.80;66.20;;;;;;5005077;28;20061;-75
2022/12/02 09:30:13;;;;;;;24.75;11.27;;;3.80;62.20;;;;;;4995312;28;20585;-75
2022/12/02 09:32:39;;;;;;;27.08;10.98;;;3.70;57.30;;;;;;4996019;28;20093;-75
2022/12/02 09:35:05;;;;;;;32.22;12.95;;;3.60;52.50;;;;;;4995934;28;20064;-75
2022/12/02 09:37:30;;;;;;;41.92;16.15;;;3.70;48.50;;;;;;4995643;28;20385;-73
2022/12/02 09:39:56;;;;;;;33.97;12.95;;;3.60;39.20;;;;;;4995723;28;20036;-74
2022/12/02 09:42:22;;;;;;;34.17;11.82;;;3.50;35.10;;;;;;4995477;28;20030;-75
2022/12/02 09:44:48;;;;;;;28.10;11.63;;;3.50;33.40;;;;;;4995626;28;20026;-75
2022/12/02 09:47:16;;;;;;;28.10;10.43;;;3.60;32.00;;;;;;4995115;28;20049;-75
2022/12/02 09:49:43;;;;;;;28.73;11.32;;;3.50;29.50;;;;;;4983414;28;20026;-75
2022/12/02 09:52:14;;;;;;;28.08;11.07;;;3.60;26.20;;;;;;4975863;28;20043;-75
2022/12/02 09:54:41;;;;;;;30.02;13.68;;;3.70;25.70;;;;;;4975855;28;20069;-75
2022/12/02 09:57:15;;;;;;;33.72;13.20;;;3.70;25.50;;;;;;4976037;28;20054;-75
2022/12/02 09:59:42;;;;;;;24.23;10.85;;;3.70;25.50;;;;;;4975972;28;20045;-75
2022/12/02 10:02:42;;;;;;;38.58;14.20;;;3.70;25.30;;;;;;4975647;28;20027;-75
2022/12/02 10:05:23;;;;;;;30.00;11.52;;;3.60;27.70;;;;;;4971611;28;20047;-75
2022/12/02 10:07:51;;;;;;;33.10;12.77;;;3.50;28.70;;;;;;4975849;28;20482;-74
2022/12/02 10:10:32;;;;;;;32.28;11.52;;;3.60;30.70;;;;;;4975881;28;20034;-75
2022/12/02 10:12:57;;;;;;;38.05;13.57;;;3.60;28.90;;;;;;4975731;28;20026;-75
2022/12/02 10:15:26;;;;;;;40.00;14.68;;;3.70;27.70;;;;;;4975732;28;20102;-75
2022/12/02 10:17:53;;;;;;;34.38;14.18;;;3.70;28.00;;;;;;4975414;28;20102;-75
2022/12/02 10:20:21;;;;;;;35.40;13.65;;;3.50;28.00;;;;;;4983571;28;20523;-75
2022/12/02 10:23:14;;;;;;;36.13;14.68;;;3.30;28.30;;;;;;4994678;28;20040;-75
2022/12/02 10:25:43;;;;;;;34.60;12.45;;;3.40;29.70;;;;;;4995058;28;20196;-75
2022/12/02 10:28:38;;;;;;;26.95;10.93;;;3.60;27.90;;;;;;4994634;28;20030;-75
2022/12/02 10:31:12;;;;;;;34.33;12.57;;;3.70;25.90;;;;;;4971008;28;20038;-75
2022/12/02 10:33:46;;;;;;;22.98;10.45;;;3.60;27.00;;;;;;4975329;28;20023;-75
2022/12/02 10:36:11;;;;;;;23.70;10.93;;;3.60;25.50;;;;;;4975450;28;20095;-75
2022/12/02 10:38:37;;;;;;;18.02;8.30;;;3.60;21.90;;;;;;4975123;28;20054;-75
2022/12/02 10:41:14;;;;;;;22.90;9.45;;;3.60;21.50;;;;;;4975316;28;20026;-75
2022/12/02 10:43:41;;;;;;;20.67;9.40;;;3.60;19.60;;;;;;4975003;28;20034;-75
2022/12/02 10:46:10;;;;;;;28.15;10.05;;;3.70;20.40;;;;;;4957814;28;20461;-75
2022/12/02 10:48:35;;;;;;;32.58;11.93;;;3.70;19.20;;;;;;5012420;28;20022;-75
2022/12/02 10:51:01;;;;;;;30.45;11.98;;;3.60;20.40;;;;;;5013790;28;20096;-75
2022/12/02 10:53:29;;;;;;;34.63;13.00;;;3.80;22.10;;;;;;5013977;28;20071;-75
2022/12/02 10:55:55;;;;;;;27.50;9.98;;;3.90;23.30;;;;;;5014347;28;20436;-75
2022/12/02 10:58:28;;;;;;;23.63;10.35;;;3.80;21.30;;;;;;5013941;28;20024;-75
2022/12/02 11:00:56;;;;;;;20.40;8.90;;;3.60;19.40;;;;;;5014058;28;20110;-75
2022/12/02 11:03:22;;;;;;;22.75;9.23;;;3.50;21.20;;;;;;5013797;28;20022;-75
2022/12/02 11:05:49;;;;;;;24.70;10.60;;;3.50;20.40;;;;;;4998301;28;20121;-75
2022/12/02 11:08:27;;;;;;;17.75;9.05;;;3.40;21.90;;;;;;4974777;28;20065;-74
2022/12/02 11:11:15;;;;;;;23.15;10.82;;;3.40;18.40;;;;;;4974562;28;20498;-75
2022/12/02 11:13:57;;;;;;;23.90;9.50;;;3.30;19.60;;;;;;4974670;28;20031;-75
2022/12/02 11:16:25;;;;;;;28.13;9.20;;;3.20;21.60;;;;;;4977259;28;20023;-76
2022/12/02 11:19:07;;;;;;;18.48;8.40;;;3.10;21.30;;;;;;4984301;28;20516;-75
2022/12/02 11:21:43;;;;;;;18.88;8.57;;;3.10;22.10;;;;;;4978807;28;20035;-77
2022/12/02 11:24:26;;;;;;;25.20;9.43;;;3.00;23.90;;;;;;4979533;28;20033;-76
2022/12/02 11:27:03;;;;;;;27.42;11.00;;;3.10;24.80;;;;;;4977012;28;20458;-77
2022/12/02 11:29:30;;;;;;;22.88;10.52;;;3.10;23.10;;;;;;4993936;28;20022;-77
2022/12/02 11:32:24;;;;;;;23.35;8.30;;;3.20;24.70;;;;;;4989873;28;20023;-77
2022/12/02 11:34:54;;;;;;;22.92;9.10;;;3.60;23.40;;;;;;4974531;28;20041;-77
2022/12/02 11:37:29;;;;;;;21.08;8.57;;;3.70;20.40;;;;;;4974738;28;20356;-76
2022/12/02 11:40:25;;;;;;;27.20;11.50;;;3.80;22.20;;;;;;4974506;28;20027;-76
2022/12/02 11:42:51;;;;;;;21.23;9.95;;;3.60;22.90;;;;;;4951783;28;20061;-76
2022/12/02 11:45:20;;;;;;;19.70;8.23;;;3.40;17.50;;;;;;4974771;28;20022;-76
2022/12/02 11:47:57;;;;;;;24.92;9.80;;;3.10;18.20;;;;;;4974457;28;20031;-76
2022/12/02 11:50:28;;;;;;;22.60;9.32;;;3.10;22.40;;;;;;4974232;28;20458;-77
2022/12/02 11:53:02;;;;;;;22.70;8.68;;;3.20;17.30;;;;;;4982942;28;20481;-77
2022/12/02 11:55:39;;;;;;;20.90;8.65;;;3.20;18.50;;;;;;4993933;28;20065;-77
2022/12/02 11:58:33;;;;;;;26.80;9.70;;;3.30;17.30;;;;;;4993954;28;20054;-77
2022/12/02 12:01:01;;;;;;;20.88;9.43;;;3.30;18.80;;;;;;4993759;28;20037;-76
2022/12/02 12:03:26;;;;;;;24.48;9.05;;;3.40;18.50;;;;;;4993635;28;20030;-76
2022/12/02 12:06:10;;;;;;;32.20;11.30;;;3.50;18.20;;;;;;4993853;28;20027;-77
2022/12/02 12:08:38;;;;;;;20.65;8.50;;;3.50;18.90;;;;;;4993532;28;20026;-76
2022/12/02 12:11:21;;;;;;;26.20;10.15;;;3.60;15.60;;;;;;4995731;28;20030;-76
2022/12/02 12:14:05;;;;;;;24.83;11.10;;;3.60;21.40;;;;;;4997343;28;20077;-76
2022/12/02 12:16:36;;;;;;;24.55;9.65;;;3.50;15.70;;;;;;4977789;28;20026;-76
2022/12/02 12:19:11;;;;;;;26.92;11.73;;;3.30;15.20;;;;;;4989799;28;20053;-77
2022/12/02 12:21:49;;;;;;;26.13;10.68;;;3.20;17.10;;;;;;4998250;28;20030;-76
2022/12/02 12:24:17;;;;;;;18.48;7.53;;;3.10;14.90;;;;;;4997264;28;20030;-76
2022/12/02 12:27:03;;;;;;;27.15;11.85;;;3.00;17.50;;;;;;4997018;28;20093;-76
2022/12/02 12:29:33;;;;;;;25.58;11.23;;;2.90;15.70;;;;;;4985939;28;20031;-76
2022/12/02 12:31:59;;;;;;;;;;;2.80;16.60;;;;;;4997526;28;20057;-76
2022/12/02 12:34:25;;;;;;;27.23;11.95;;;2.70;16.90;;;;;;4996794;28;19906;-76
2022/12/02 12:36:50;;;;;;;25.88;11.27;;;2.60;18.10;;;;;;4996892;28;20037;-76
2022/12/02 12:39:17;;;;;;;26.13;12.73;;;2.50;18.60;;;;;;4996738;28;20030;-76
2022/12/02 12:41:43;;;;;;;30.05;11.57;;;2.60;19.10;;;;;;4996935;28;20065;-76
2022/12/02 12:44:09;;;;;;;32.47;11.55;;;2.70;19.10;;;;;;4996681;28;20031;-76
2022/12/02 12:46:34;;;;;;;29.60;13.43;;;2.80;19.60;;;;;;4996731;28;20030;-76
2022/12/02 12:49:00;;;;;;;28.70;11.18;;;2.80;22.90;;;;;;4996649;28;20453;-76
2022/12/02 12:51:26;;;;;;;28.23;13.18;;;2.90;20.20;;;;;;4979693;28;20050;-76
2022/12/02 12:53:51;;;;;;;29.98;12.50;;;2.80;19.20;;;;;;4977485;28;20350;-77
2022/12/02 12:56:17;;;;;;;34.20;14.35;;;2.80;20.40;;;;;;4976987;28;20370;-76
2022/12/02 12:58:42;;;;;;;34.70;14.20;;;2.80;19.10;;;;;;4977056;28;20023;-75
2022/12/02 13:01:08;;;;;;;35.88;15.13;;;2.80;20.60;;;;;;4977054;28;20062;-76
2022/12/02 13:03:34;;;;;;;35.97;15.30;;;2.80;20.10;;;;;;4977044;28;20035;-76